createdAt,value
2019-04-07T00:04:50.992Z,75.40
2019-04-07T00:09:46.968Z,74.96
2019-04-07T00:14:42.879Z,74.96
2019-04-07T00:19:38.923Z,76.21
2019-04-07T00:24:35.526Z,76.70
2019-04-07T00:29:31.406Z,76.93
2019-04-07T00:34:27.614Z,76.79
2019-04-07T00:39:24.505Z,76.55
2019-04-07T00:44:20.431Z,77.11
2019-04-07T00:49:16.355Z,77.73
2019-04-07T00:54:13.671Z,77.34
2019-04-07T00:59:09.974Z,77.48
2019-04-07T01:04:06.159Z,77.64
2019-04-07T01:09:04.514Z,78.03
2019-04-07T01:14:00.666Z,78.58
2019-04-07T01:18:56.942Z,79.27
2019-04-07T01:23:54.695Z,78.97
2019-04-07T01:28:50.780Z,79.55
2019-04-07T01:33:46.923Z,79.40
2019-04-07T01:38:43.294Z,79.54
2019-04-07T01:49:10.125Z,80.91
2019-04-07T01:54:25.702Z,80.81
2019-04-07T01:59:40.872Z,81.10
2019-04-07T02:04:44.630Z,80.72
2019-04-07T02:15:11.607Z,80.15
2019-04-07T02:20:13.232Z,80.87
2019-04-07T02:25:28.405Z,80.62
2019-04-07T02:30:33.143Z,81.53
2019-04-07T02:35:31.878Z,81.74
2019-04-07T02:40:33.102Z,82.29
2019-04-07T02:45:50.604Z,82.50
2019-04-07T02:50:48.978Z,82.05
2019-04-07T02:55:59.021Z,81.87
2019-04-07T03:00:57.693Z,82.44
2019-04-07T03:06:02.143Z,83.50
2019-04-07T03:11:03.005Z,82.66
2019-04-07T03:16:17.572Z,83.50
2019-04-07T03:21:15.749Z,83.70
2019-04-07T03:26:31.166Z,84.29
2019-04-07T03:31:29.769Z,83.70
2019-04-07T03:36:30.392Z,84.79
2019-04-07T03:41:29.146Z,84.92
2019-04-07T03:46:39.111Z,84.36
2019-04-07T03:51:40.414Z,83.34
2019-04-07T03:56:50.652Z,83.70
2019-04-07T04:01:57.560Z,83.67
2019-04-07T04:06:56.567Z,83.84
2019-04-07T04:12:11.107Z,83.91
2019-04-07T04:17:07.045Z,83.53
2019-04-07T04:22:03.985Z,83.61
2019-04-07T04:27:00.828Z,83.36
2019-04-07T04:31:57.223Z,83.55
2019-04-07T04:36:54.336Z,83.98
2019-04-07T04:41:50.831Z,83.63
2019-04-07T04:46:47.399Z,84.19
2019-04-07T04:51:44.321Z,84.45
2019-04-07T04:56:40.409Z,84.30
2019-04-07T05:01:36.321Z,84.46
2019-04-07T05:06:33.144Z,84.21
2019-04-07T05:11:29.382Z,84.19
2019-04-07T05:16:25.374Z,84.14
2019-04-07T05:21:21.275Z,81.79
2019-04-07T05:26:17.260Z,80.78
2019-04-07T05:31:13.328Z,78.80
2019-04-07T05:36:09.230Z,75.12
2019-04-07T05:41:05.442Z,72.99
2019-04-07T05:46:01.718Z,73.95
2019-04-07T05:50:59.992Z,73.72
2019-04-07T05:55:56.286Z,71.86
2019-04-07T06:00:52.253Z,69.51
2019-04-07T06:05:51.070Z,69.61
2019-04-07T06:10:46.293Z,70.20
2019-04-07T06:15:42.187Z,68.90
2019-04-07T06:20:38.180Z,70.82
2019-04-07T06:25:38.133Z,73.05
2019-04-07T06:30:32.897Z,74.79
2019-04-07T06:35:29.830Z,74.52
2019-04-07T06:40:25.754Z,75.44
2019-04-07T06:45:24.416Z,75.70
2019-04-07T06:50:49.276Z,75.81
2019-04-07T06:55:48.629Z,74.28
2019-04-07T07:00:47.363Z,73.55
2019-04-07T07:05:49.493Z,73.14
2019-04-07T07:11:05.805Z,71.67
2019-04-07T07:16:11.443Z,70.77
2019-04-07T07:21:14.453Z,70.77
2019-04-07T07:26:21.924Z,70.16
2019-04-07T07:31:18.251Z,67.26
2019-04-07T07:36:17.336Z,65.40
2019-04-07T07:41:12.086Z,66.44
2019-04-07T07:46:08.675Z,64.39
2019-04-07T07:51:07.156Z,62.38
2019-04-07T07:56:03.200Z,58.36
2019-04-07T08:01:00.544Z,54.38
2019-04-07T08:05:57.802Z,54.11
2019-04-07T08:10:57.153Z,53.77
2019-04-07T08:15:51.646Z,52.62
2019-04-07T08:20:47.897Z,52.03
2019-04-07T08:25:43.857Z,50.94
2019-04-07T08:30:43.966Z,49.93
2019-04-07T08:35:39.536Z,51.13
2019-04-07T08:40:36.842Z,48.61
2019-04-07T08:45:38.358Z,48.91
2019-04-07T08:50:35.029Z,48.80
2019-04-07T08:55:31.014Z,48.58
2019-04-07T09:00:29.410Z,47.99
2019-04-07T09:05:29.046Z,46.54
2019-04-07T09:10:25.946Z,46.85
2019-04-07T09:20:25.708Z,47.13
2019-04-07T09:25:27.213Z,47.36
2019-04-07T09:30:28.092Z,48.08
2019-04-07T09:35:44.277Z,48.04
2019-04-07T09:41:00.539Z,47.92
2019-04-07T09:46:01.623Z,46.47
2019-04-07T09:51:06.651Z,45.30
2019-04-07T09:56:10.638Z,47.30
2019-04-07T10:01:27.812Z,45.83
2019-04-07T10:06:30.514Z,47.11
2019-04-07T10:11:28.512Z,46.39
2019-04-07T10:16:44.742Z,47.32
2019-04-07T10:21:48.647Z,47.52
2019-04-07T10:26:49.942Z,45.23
2019-04-07T10:32:06.449Z,43.37
2019-04-07T10:37:21.900Z,45.41
2019-04-07T10:42:22.549Z,45.49
2019-04-07T10:47:32.474Z,43.91
2019-04-07T10:52:39.350Z,43.70
2019-04-07T10:57:49.429Z,44.39
2019-04-07T11:02:52.786Z,41.88
2019-04-07T11:08:07.170Z,45.72
2019-04-07T11:13:22.092Z,43.69
2019-04-07T11:18:29.193Z,42.39
2019-04-07T11:23:29.772Z,42.51
2019-04-07T11:28:30.681Z,41.55
2019-04-07T11:33:45.363Z,41.76
2019-04-07T11:39:01.457Z,43.13
2019-04-07T11:44:02.135Z,41.85
2019-04-07T11:49:00.759Z,40.97
2019-04-07T11:54:18.119Z,42.30
2019-04-07T11:59:16.647Z,38.40
2019-04-07T12:04:30.677Z,38.22
2019-04-07T12:09:29.245Z,39.91
2019-04-07T12:14:27.566Z,36.83
2019-04-07T12:19:26.130Z,37.94
2019-04-07T12:24:28.705Z,37.65
2019-04-07T12:29:36.213Z,36.85
2019-04-07T12:34:34.393Z,36.23
2019-04-07T12:39:50.946Z,35.90
2019-04-07T12:45:07.926Z,37.52
2019-04-07T12:50:07.428Z,37.86
2019-04-07T12:55:19.294Z,37.28
2019-04-07T13:00:52.277Z,35.58
2019-04-07T13:05:42.657Z,36.88
2019-04-07T13:10:43.577Z,38.83
2019-04-07T13:15:45.460Z,35.94
2019-04-07T13:20:59.033Z,36.41
2019-04-07T13:26:00.658Z,36.89
2019-04-07T13:31:04.964Z,37.43
2019-04-07T13:36:03.155Z,38.71
2019-04-07T13:41:07.294Z,38.06
2019-04-07T13:46:17.160Z,35.89
2019-04-07T13:51:13.656Z,38.62
2019-04-07T13:56:26.930Z,36.41
2019-04-07T14:01:29.333Z,37.98
2019-04-07T14:06:36.226Z,37.59
2019-04-07T14:12:02.062Z,38.14
2019-04-07T14:17:07.330Z,37.74
2019-04-07T14:22:05.474Z,36.30
2019-04-07T14:27:07.522Z,38.15
2019-04-07T14:32:23.055Z,35.91
2019-04-07T14:37:38.345Z,34.65
2019-04-07T14:42:39.517Z,36.48
2019-04-07T14:47:38.145Z,36.94
2019-04-07T14:52:36.160Z,39.22
2019-04-07T14:57:46.356Z,39.27
2019-04-07T15:02:42.298Z,40.08
2019-04-07T15:07:46.266Z,40.27
2019-04-07T15:12:45.771Z,39.42
2019-04-07T15:17:43.603Z,41.56
2019-04-07T15:22:41.340Z,39.24
2019-04-07T15:27:40.029Z,39.30
2019-04-07T15:32:37.138Z,38.46
2019-04-07T15:37:34.683Z,40.44
2019-04-07T15:42:40.405Z,40.88
2019-04-07T15:47:30.990Z,39.77
2019-04-07T15:52:30.571Z,39.90
2019-04-07T15:57:26.098Z,38.56
2019-04-07T16:02:22.472Z,39.87
2019-04-07T16:07:20.180Z,40.17
2019-04-07T16:12:17.970Z,39.86
2019-04-07T16:17:15.842Z,41.44
2019-04-07T16:22:13.374Z,42.61
2019-04-07T16:27:11.029Z,41.66
2019-04-07T16:32:08.162Z,42.96
2019-04-07T16:37:04.942Z,40.28
2019-04-07T16:42:01.901Z,40.35
2019-04-07T16:47:03.572Z,39.80
2019-04-07T16:51:59.979Z,39.93
2019-04-07T16:56:57.524Z,39.20
2019-04-07T17:01:53.284Z,39.85
2019-04-07T17:06:59.489Z,39.20
2019-04-07T17:11:47.015Z,40.39
2019-04-07T17:16:45.472Z,42.95
2019-04-07T17:21:42.842Z,41.48
2019-04-07T17:26:41.472Z,42.22
2019-04-07T17:31:40.054Z,42.75
2019-04-07T17:36:36.482Z,44.01
2019-04-07T17:41:33.015Z,45.60
2019-04-07T17:46:41.630Z,45.18
2019-04-07T17:51:43.879Z,47.22
2019-04-07T17:56:43.166Z,48.17
2019-04-07T18:01:46.946Z,48.52
2019-04-07T18:07:05.798Z,49.28
2019-04-07T18:12:14.060Z,49.36
2019-04-07T18:17:20.408Z,50.48
2019-04-07T18:22:30.431Z,50.77
2019-04-07T18:32:51.451Z,52.17
2019-04-07T18:37:52.945Z,52.04
2019-04-07T18:42:51.661Z,52.94
2019-04-07T18:47:58.155Z,53.54
2019-04-07T18:53:12.763Z,54.19
2019-04-07T18:58:20.399Z,54.91
2019-04-07T19:03:20.521Z,55.12
2019-04-07T19:08:20.261Z,55.64
2019-04-07T19:13:31.265Z,54.48
2019-04-07T19:18:42.426Z,54.58
2019-04-07T19:23:50.812Z,54.70
2019-04-07T19:28:58.115Z,54.68
2019-04-07T19:33:58.751Z,55.21
2019-04-07T19:39:02.761Z,55.12
2019-04-07T19:44:00.723Z,55.70
2019-04-07T19:49:04.697Z,56.52
2019-04-07T19:54:16.025Z,56.97
2019-04-07T19:59:19.497Z,58.08
2019-04-07T20:04:26.050Z,58.38
2019-04-07T20:09:23.881Z,59.11
2019-04-07T20:14:47.630Z,59.11
2019-04-07T20:19:51.572Z,57.47
2019-04-07T20:25:10.865Z,58.62
2019-04-07T20:30:08.315Z,57.97
2019-04-07T20:35:11.515Z,57.95
2019-04-07T20:40:25.892Z,58.28
2019-04-07T20:45:26.794Z,58.33
2019-04-07T20:50:37.682Z,58.42
2019-04-07T20:55:52.464Z,58.96
2019-04-07T21:06:18.893Z,60.21
2019-04-07T21:11:20.452Z,60.71
2019-04-07T21:16:28.072Z,60.94
2019-04-07T21:21:43.301Z,60.64
2019-04-07T21:26:40.728Z,61.30
2019-04-07T21:31:56.052Z,61.09
2019-04-07T21:37:00.477Z,61.92
2019-04-07T21:41:58.433Z,62.11
2019-04-07T21:47:13.766Z,62.96
2019-04-07T21:52:11.786Z,63.31
2019-04-07T21:57:09.929Z,64.09
2019-04-07T22:02:13.898Z,64.82
2019-04-07T22:07:11.740Z,65.46
2019-04-07T22:12:08.516Z,65.81
2019-04-07T22:17:05.347Z,66.37
2019-04-07T22:22:01.405Z,65.27
2019-04-07T22:26:57.330Z,64.02
2019-04-07T22:31:55.594Z,65.48
2019-04-07T22:36:51.824Z,65.84
2019-04-07T22:41:48.406Z,65.46
2019-04-07T22:46:48.102Z,66.83
2019-04-07T22:51:44.614Z,66.31
2019-04-07T22:56:40.864Z,64.21
2019-04-07T23:01:37.538Z,64.30
2019-04-07T23:06:34.156Z,64.61
2019-04-07T23:11:30.181Z,65.32
2019-04-07T23:16:26.106Z,65.55
2019-04-07T23:21:22.024Z,66.81
2019-04-07T23:26:18.155Z,66.20
2019-04-07T23:31:14.371Z,66.45
2019-04-07T23:36:10.295Z,67.23
2019-04-07T23:41:06.243Z,67.30
2019-04-07T23:46:02.872Z,67.60
2019-04-07T23:50:58.801Z,66.68
2019-04-07T23:55:55.259Z,67.05
